Fields, Oregon
Current Conditions -  °F | °C
As of 11:35 PM on Wednesday 17 Dec 2014 (Local Time) from KLKV Reporting Station
Broken Clouds Broken Clouds  
Wind Chill: 27°   Ceiling: 2800
Heat Index: 34°   Visibility: 10mi
Dew Point: 30°   Wind: 8mph
Humidity: 87%   Direction: 160°SSE
Pressure: 30.01"   Gusts: NA
Location:  42.26°N, 118.67°W
Report Text: KLKV 180735Z 16007KT 10SM FEW010 SCT020 BKN028 01/M01 A3001 RMK AO1
Loading
Personal Weather Stations






























Interactive Weather Map New forecast layout! Learn more

10-Day Weather Forecast

Advertisements
Track Severe Weather on mobile